Time;durP1;ratioP1;P1;durP2;ratioP2;P2;SDS_P1;SDS_P2;PMS_P1;PMS_P2;Temp;Humidity;BMP_temperature;BMP_pressure;BME280_temperature;BME280_humidity;BME280_pressure;Samples;Min_cycle;Max_cycle;Signal;HPM_P1;HPM_P2
2021/09/11 00:01:58;;;;;;;15.72;9.53;;;;;;;10.00;70.55;97473.78;1792130;78;25834;-93
2021/09/11 00:04:24;;;;;;;12.82;9.50;;;;;;;9.87;70.59;97469.72;1821619;77;27379;-94
2021/09/11 00:06:51;;;;;;;12.00;8.58;;;;;;;9.86;70.72;97476.15;1847464;76;25711;-93
2021/09/11 00:09:18;;;;;;;11.18;8.50;;;;;;;9.78;70.85;97472.31;1847419;77;25691;-93
2021/09/11 00:11:44;;;;;;;12.78;8.75;;;;;;;9.78;70.89;97472.31;1847145;76;26198;-93
2021/09/11 00:14:11;;;;;;;14.78;8.85;;;;;;;9.77;70.99;97473.34;1814027;77;25639;-92
2021/09/11 00:16:37;;;;;;;14.60;8.95;;;;;;;9.75;70.92;97464.94;1819951;77;27409;-92
2021/09/11 00:19:04;;;;;;;9.85;8.20;;;;;;;9.68;70.74;97469.47;1842096;76;25759;-93
2021/09/11 00:21:31;;;;;;;11.15;8.05;;;;;;;9.65;70.90;97467.20;1833287;77;25754;-91
2021/09/11 00:23:58;;;;;;;12.50;8.05;;;;;;;9.65;70.90;97469.89;1828966;76;25873;-93
2021/09/11 00:26:24;;;;;;;12.28;8.53;;;;;;;9.63;70.95;97469.27;1789495;78;25960;-90
2021/09/11 00:28:51;;;;;;;15.00;7.85;;;;;;;9.60;70.95;97465.63;1766596;78;27331;-82
2021/09/11 00:31:18;;;;;;;9.63;7.78;;;;;;;9.54;70.97;97462.92;1771790;79;25764;-88
2021/09/11 00:33:44;;;;;;;10.70;7.95;;;;;;;9.54;71.04;97460.23;1770477;78;25745;-95
2021/09/11 00:36:11;;;;;;;10.15;7.70;;;;;;;9.52;71.03;97460.95;1797218;79;25803;-92
2021/09/11 00:38:38;;;;;;;12.90;8.08;;;;;;;9.46;71.12;97463.92;1802932;79;26293;-93
2021/09/11 00:41:04;;;;;;;12.07;8.40;;;;;;;9.45;71.20;97466.81;1789146;78;28400;-91
2021/09/11 00:43:34;;;;;;;12.43;8.70;;;;;;;9.45;71.21;97462.77;1792626;78;25832;-92
2021/09/11 00:45:59;;;;;;;12.53;7.62;;;;;;;9.41;71.24;97462.37;1780042;79;25780;-92
2021/09/11 00:48:26;;;;;;;8.83;6.95;;;;;;;9.38;71.21;97456.86;1802205;78;25714;-83
2021/09/11 00:50:52;;;;;;;12.15;7.37;;;;;;;9.35;71.26;97466.69;1805057;79;25220;-88
2021/09/11 00:53:20;;;;;;;9.75;6.95;;;;;;;9.33;71.17;97463.87;1805676;79;27362;-94
2021/09/11 00:55:48;;;;;;;13.03;6.95;;;;;;;9.28;71.20;97462.32;1777281;79;25283;-88
2021/09/11 00:58:15;;;;;;;15.20;7.75;;;;;;;9.28;71.30;97465.02;1789206;79;25208;-93
2021/09/11 01:00:42;;;;;;;11.53;6.72;;;;;;;9.23;71.35;97462.91;1805982;79;25824;-85
2021/09/11 01:03:08;;;;;;;9.08;6.72;;;;;;;9.20;71.37;97456.58;1806453;79;25208;-82
2021/09/11 01:05:35;;;;;;;11.45;8.05;;;;;;;9.19;71.47;97460.30;1785140;79;27373;-81
2021/09/11 01:08:01;;;;;;;9.53;7.25;;;;;;;9.18;71.51;97455.94;1773777;79;25385;-95
2021/09/11 01:10:28;;;;;;;11.38;8.20;;;;;;;9.17;71.47;97460.20;1788484;79;25751;-91
2021/09/11 01:12:55;;;;;;;8.73;7.47;;;;;;;9.12;71.53;97458.11;1801604;78;25716;-90
2021/09/11 01:15:37;;;;;;;11.60;7.90;;;;;;;9.12;71.61;97464.01;1801998;78;25639;-94
2021/09/11 01:18:05;;;;;;;10.03;7.50;;;;;;;9.10;71.64;97457.98;1802238;79;27374;-82
2021/09/11 01:20:35;;;;;;;12.75;7.60;;;;;;;9.09;71.64;97460.36;1804177;78;25852;-95
2021/09/11 01:23:01;;;;;;;9.18;7.35;;;;;;;9.06;71.61;97460.78;1802016;79;25670;-94
2021/09/11 01:25:28;;;;;;;12.05;8.35;;;;;;;9.02;71.58;97462.52;1803139;79;25764;-92
2021/09/11 01:27:55;;;;;;;9.68;7.03;;;;;;;8.99;71.67;97458.05;1802427;78;25529;-92
2021/09/11 01:30:22;;;;;;;9.73;7.20;;;;;;;8.94;71.71;97455.94;1801961;78;27415;-92
2021/09/11 01:32:51;;;;;;;10.63;6.97;;;;;;;8.89;71.79;97462.97;1801817;78;25274;-93
2021/09/11 01:35:18;;;;;;;8.98;7.22;;;;;;;8.81;71.86;97468.02;1801548;78;25789;-93
2021/09/11 01:37:45;;;;;;;9.48;7.42;;;;;;;8.80;72.03;97465.00;1792441;79;25867;-91
2021/09/11 01:40:12;;;;;;;10.25;7.60;;;;;;;8.75;72.02;97462.06;1802046;78;25620;-94
2021/09/11 01:42:39;;;;;;;9.63;6.90;;;;;;;8.72;72.20;97466.48;1802150;79;28175;-92
2021/09/11 01:45:15;;;;;;;9.78;7.33;;;;;;;8.74;72.28;97464.95;1773885;79;25757;-90
2021/09/11 01:47:42;;;;;;;11.50;6.95;;;;;;;8.77;72.23;97466.73;1800621;79;25678;-93
2021/09/11 01:50:12;;;;;;;8.43;6.55;;;;;;;8.76;72.26;97470.45;1778906;78;26371;-93
2021/09/11 01:52:39;;;;;;;9.60;7.08;;;;;;;8.78;72.22;97468.40;1801732;79;25747;-94
2021/09/11 01:55:09;;;;;;;8.90;6.92;;;;;;;8.79;72.19;97471.92;1805690;79;27420;-80
2021/09/11 01:57:39;;;;;;;12.20;7.03;;;;;;;8.71;72.21;97464.82;1796591;78;25200;-83
2021/09/11 02:00:08;;;;;;;9.40;7.08;;;;;;;8.67;72.38;97471.65;1770159;78;25729;-92
2021/09/11 02:02:36;;;;;;;10.00;7.40;;;;;;;8.70;72.52;97469.05;1800599;78;25688;-91
2021/09/11 02:05:08;;;;;;;9.60;7.37;;;;;;;8.64;72.44;97471.52;1801616;79;25772;-92
2021/09/11 02:07:35;;;;;;;11.37;7.27;;;;;;;8.61;72.57;97469.73;1801381;79;27375;-90
2021/09/11 02:10:04;;;;;;;12.13;7.50;;;;;;;8.57;72.56;97469.83;1801507;79;25802;-89
2021/09/11 02:12:30;;;;;;;8.95;6.85;;;;;;;8.51;72.51;97471.95;1795965;79;25251;-91
2021/09/11 02:14:57;;;;;;;11.22;7.65;;;;;;;8.49;72.66;97468.62;1764261;78;25734;-89
2021/09/11 02:17:23;;;;;;;10.10;6.72;;;;;;;8.52;72.65;97473.61;1787943;79;25828;-92
2021/09/11 02:19:50;;;;;;;11.22;7.17;;;;;;;8.49;72.62;97472.14;1796220;78;28318;-90
2021/09/11 02:22:17;;;;;;;12.05;6.97;;;;;;;8.51;72.69;97473.30;1796194;79;25715;-89
2021/09/11 02:24:43;;;;;;;11.55;6.70;;;;;;;8.49;72.61;97474.00;1795170;79;26375;-91
2021/09/11 02:27:10;;;;;;;9.15;7.00;;;;;;;8.46;72.74;97477.08;1796530;78;26331;-89
2021/09/11 02:29:37;;;;;;;8.53;6.70;;;;;;;8.47;72.78;97472.84;1791013;79;25734;-94
2021/09/11 02:32:04;;;;;;;9.58;7.37;;;;;;;8.42;72.80;97475.83;1780122;78;27195;-87
2021/09/11 02:34:32;;;;;;;10.72;7.33;;;;;;;8.38;72.95;97474.54;1793403;79;25644;-85
2021/09/11 02:36:59;;;;;;;10.68;7.28;;;;;;;8.40;72.97;97473.84;1795079;78;25273;-92
2021/09/11 02:39:26;;;;;;;8.08;6.87;;;;;;;8.36;72.94;97474.73;1780556;79;25879;-90
2021/09/11 02:41:53;;;;;;;10.20;7.22;;;;;;;8.28;72.88;97478.37;1794203;78;25449;-87
2021/09/11 02:44:19;;;;;;;8.98;6.47;;;;;;;8.27;72.98;97474.02;1800309;79;27416;-92
2021/09/11 02:46:46;;;;;;;12.20;6.50;;;;;;;8.28;72.95;97472.16;1766735;80;25155;-88
2021/09/11 02:49:13;;;;;;;9.90;7.42;;;;;;;8.26;72.95;97479.08;1797167;79;25260;-92
2021/09/11 02:51:39;;;;;;;13.30;7.60;;;;;;;8.24;72.93;97481.64;1743368;81;25851;-93
2021/09/11 02:54:06;;;;;;;10.72;7.35;;;;;;;8.23;73.06;97475.94;1773431;79;25710;-88
2021/09/11 02:56:33;;;;;;;12.80;7.62;;;;;;;8.18;73.00;97468.48;1796302;78;27297;-92
2021/09/11 02:58:59;;;;;;;10.82;6.92;;;;;;;8.18;73.12;97472.52;1791507;79;25794;-92
2021/09/11 03:01:26;;;;;;;12.98;7.37;;;;;;;8.17;73.17;97475.39;1795853;78;25273;-93
2021/09/11 03:03:52;;;;;;;11.12;7.22;;;;;;;8.16;73.17;97477.76;1797009;79;25908;-91
2021/09/11 03:06:19;;;;;;;10.58;6.72;;;;;;;8.17;73.17;97480.77;1764692;80;25769;-93
2021/09/11 03:08:45;;;;;;;11.95;7.20;;;;;;;8.15;73.08;97479.61;1797402;78;27439;-92
2021/09/11 03:11:13;;;;;;;11.70;7.37;;;;;;;8.12;73.10;97477.30;1788703;79;25239;-93
2021/09/11 03:13:42;;;;;;;8.43;6.50;;;;;;;8.10;73.01;97476.66;1798236;78;25823;-93
2021/09/11 03:16:08;;;;;;;9.40;7.17;;;;;;;8.08;73.03;97473.36;1830485;77;25867;-93
2021/09/11 03:18:35;;;;;;;9.13;6.25;;;;;;;8.06;73.13;97469.20;1805668;78;25769;-93
2021/09/11 03:21:02;;;;;;;11.48;6.83;;;;;;;8.04;73.06;97472.59;1834260;78;27538;-95
2021/09/11 03:23:28;;;;;;;16.70;6.40;;;;;;;8.00;73.04;97465.41;1823233;78;25247;-92
2021/09/11 03:25:55;;;;;;;15.98;7.22;;;;;;;7.96;73.07;97466.84;1829705;78;25277;-94
2021/09/11 03:28:22;;;;;;;10.23;6.97;;;;;;;7.97;73.21;97471.71;1818878;78;25551;-86
2021/09/11 03:30:48;;;;;;;9.88;6.62;;;;;;;8.00;73.30;97464.58;1840418;76;25257;-81
2021/09/11 03:33:15;;;;;;;11.93;6.95;;;;;;;8.00;73.38;97466.75;1826219;77;27378;-85
2021/09/11 03:35:41;;;;;;;14.53;7.47;;;;;;;7.98;73.30;97466.11;1833168;78;25482;-94
2021/09/11 03:38:08;;;;;;;10.88;7.25;;;;;;;7.96;73.32;97464.16;1834883;78;25721;-92
2021/09/11 03:40:34;;;;;;;12.78;7.15;;;;;;;7.94;73.28;97467.03;1818690;78;25668;-92
2021/09/11 03:43:01;;;;;;;9.38;6.42;;;;;;;7.94;73.28;97462.17;1825774;78;25249;-88
2021/09/11 03:45:28;;;;;;;9.98;6.30;;;;;;;7.91;73.19;97469.27;1838908;78;28052;-87
2021/09/11 03:47:54;;;;;;;12.88;7.30;;;;;;;7.87;73.17;97461.27;1840003;78;25230;-95
2021/09/11 03:50:21;;;;;;;10.55;6.70;;;;;;;7.81;73.14;97462.05;1835340;78;25264;-82
2021/09/11 03:52:47;;;;;;;11.85;7.75;;;;;;;7.75;73.16;97459.60;1806517;79;25678;-92
2021/09/11 03:55:14;;;;;;;16.02;7.45;;;;;;;7.74;73.25;97460.63;1806596;78;25234;-89
2021/09/11 03:57:41;;;;;;;9.68;6.35;;;;;;;7.74;73.28;97459.79;1838118;78;26966;-94
2021/09/11 04:00:09;;;;;;;10.82;6.87;;;;;;;7.72;73.30;97453.30;1837082;78;25756;-87
2021/09/11 04:02:36;;;;;;;12.47;7.12;;;;;;;7.73;73.31;97459.50;1838879;78;25273;-86
2021/09/11 04:05:04;;;;;;;15.60;7.20;;;;;;;7.72;73.34;97455.15;1838984;78;25941;-89
2021/09/11 04:07:30;;;;;;;10.55;6.95;;;;;;;7.73;73.44;97452.23;1816071;77;25285;-90
2021/09/11 04:09:57;;;;;;;12.55;7.80;;;;;;;7.74;73.54;97450.39;1835927;78;27415;-88
2021/09/11 04:12:23;;;;;;;10.30;6.58;;;;;;;7.73;73.62;97452.78;1833172;78;25883;-92
2021/09/11 04:14:50;;;;;;;10.35;6.67;;;;;;;7.72;73.58;97455.15;1814584;77;25795;-90
2021/09/11 04:17:16;;;;;;;11.57;6.65;;;;;;;7.72;73.54;97460.52;1841504;77;25752;-93
2021/09/11 04:19:43;;;;;;;10.82;6.40;;;;;;;7.67;73.42;97461.08;1841841;77;25205;-92
2021/09/11 04:22:10;;;;;;;12.28;6.75;;;;;;;7.58;73.32;97460.39;1841899;77;28403;-88
2021/09/11 04:24:36;;;;;;;9.78;7.00;;;;;;;7.57;73.50;97460.57;1830874;77;25692;-92
2021/09/11 04:27:04;;;;;;;11.57;6.92;;;;;;;7.58;73.63;97460.39;1819188;77;25918;-91
2021/09/11 04:29:30;;;;;;;8.98;7.05;;;;;;;7.56;73.68;97465.11;1841053;77;25758;-91
2021/09/11 04:31:57;;;;;;;11.15;7.08;;;;;;;7.52;73.77;97466.50;1841175;77;25697;-89
2021/09/11 04:34:23;;;;;;;14.85;7.87;;;;;;;7.53;73.94;97456.08;1840999;77;28178;-93
2021/09/11 04:36:50;;;;;;;11.68;7.45;;;;;;;7.48;74.03;97450.98;1833440;77;25277;-84
2021/09/11 04:39:17;;;;;;;11.10;6.95;;;;;;;7.54;74.07;97460.44;1837688;77;25724;-92
2021/09/11 04:41:43;;;;;;;9.10;7.42;;;;;;;7.55;74.12;97465.30;1842068;77;25844;-94
2021/09/11 04:44:10;;;;;;;14.07;7.60;;;;;;;7.54;74.13;97461.78;1842328;77;25412;-94
2021/09/11 04:46:36;;;;;;;11.83;7.28;;;;;;;7.53;74.30;97465.48;1841806;77;27556;-95
2021/09/11 04:49:03;;;;;;;16.52;8.45;;;;;;;7.57;74.42;97462.75;1841816;77;25671;-94
2021/09/11 04:51:29;;;;;;;16.60;8.40;;;;;;;7.58;74.39;97467.10;1841632;77;26255;-94
2021/09/11 04:53:56;;;;;;;19.42;10.40;;;;;;;7.61;74.35;97465.06;1841803;77;26422;-93
2021/09/11 04:56:22;;;;;;;20.35;12.60;;;;;;;7.64;74.33;97471.37;1842034;77;25715;-95
2021/09/11 04:58:49;;;;;;;20.02;12.68;;;;;;;7.67;74.36;97471.00;1841768;77;27437;-95
2021/09/11 05:01:16;;;;;;;21.55;12.45;;;;;;;7.68;74.49;97474.01;1843024;77;25712;-91
2021/09/11 05:03:42;;;;;;;22.02;12.23;;;;;;;7.71;74.59;97477.66;1842422;77;25286;-95
2021/09/11 05:06:10;;;;;;;20.97;10.63;;;;;;;7.73;74.63;97472.94;1844723;77;25891;-90
2021/09/11 05:08:37;;;;;;;17.82;10.80;;;;;;;7.79;74.65;97482.90;1812636;77;25266;-96
2021/09/11 05:11:04;;;;;;;17.12;11.05;;;;;;;7.81;74.81;97474.14;1839592;77;27165;-86
2021/09/11 05:13:30;;;;;;;14.33;9.90;;;;;;;7.84;74.80;97479.14;1842050;77;25313;-91
2021/09/11 05:15:57;;;;;;;15.90;10.20;;;;;;;7.87;74.89;97478.73;1839486;77;25714;-92
2021/09/11 05:18:23;;;;;;;14.45;10.23;;;;;;;7.89;74.96;97478.86;1803009;77;26190;-93
2021/09/11 05:20:50;;;;;;;13.00;8.93;;;;;;;7.95;75.02;97482.66;1841672;77;25643;-92
2021/09/11 05:23:17;;;;;;;13.72;10.05;;;;;;;8.02;75.08;97487.56;1844673;77;27340;-93
2021/09/11 05:25:44;;;;;;;14.70;10.85;;;;;;;8.07;75.15;97483.80;1844572;77;25739;-93
2021/09/11 05:28:11;;;;;;;22.48;12.85;;;;;;;8.15;75.22;97482.81;1844764;77;25756;-94
2021/09/11 05:30:38;;;;;;;18.48;11.15;;;;;;;8.21;75.30;97479.36;1819106;77;26406;-92
2021/09/11 05:33:04;;;;;;;18.70;11.38;;;;;;;8.28;75.32;97480.23;1823570;77;25965;-93
2021/09/11 05:35:31;;;;;;;15.32;11.03;;;;;;;8.35;75.44;97482.99;1834035;77;27355;-83
2021/09/11 05:37:57;;;;;;;17.52;11.43;;;;;;;8.40;75.58;97474.67;1832275;77;25718;-91
2021/09/11 05:40:24;;;;;;;15.13;11.38;;;;;;;8.48;75.67;97481.75;1836853;77;25265;-87
2021/09/11 05:42:50;;;;;;;14.45;9.88;;;;;;;8.54;75.76;97471.05;1829398;77;25838;-88
2021/09/11 05:45:17;;;;;;;20.48;11.55;;;;;;;8.63;75.81;97472.55;1844709;77;26328;-92
2021/09/11 05:47:44;;;;;;;15.93;10.28;;;;;;;8.73;75.89;97483.47;1829738;77;27394;-93
2021/09/11 05:50:11;;;;;;;24.05;10.78;;;;;;;8.80;75.92;97474.42;1834708;77;25220;-92
2021/09/11 05:52:38;;;;;;;17.10;10.35;;;;;;;8.88;76.11;97472.08;1823561;77;25680;-92
2021/09/11 05:55:06;;;;;;;16.30;9.78;;;;;;;8.95;76.26;97468.89;1844559;77;25675;-91
2021/09/11 05:57:32;;;;;;;16.90;10.43;;;;;;;9.02;76.35;97462.52;1844803;77;25572;-87
2021/09/11 06:00:00;;;;;;;13.62;9.68;;;;;;;9.12;76.45;97459.97;1821817;77;27410;-91
2021/09/11 06:02:27;;;;;;;14.30;9.90;;;;;;;9.21;76.57;97469.02;1844840;77;25687;-93
2021/09/11 06:04:53;;;;;;;22.25;9.88;;;;;;;9.30;76.57;97462.92;1843951;77;25771;-94
2021/09/11 06:07:20;;;;;;;16.85;10.90;;;;;;;9.39;76.65;97462.56;1823957;77;25889;-89
2021/09/11 06:09:46;;;;;;;15.38;11.60;;;;;;;9.49;76.72;97462.17;1822140;77;25556;-95
2021/09/11 06:12:13;;;;;;;18.95;11.63;;;;;;;9.58;76.87;97464.98;1821312;77;27581;-94
2021/09/11 06:14:40;;;;;;;18.02;10.80;;;;;;;9.67;77.01;97461.06;1844901;77;25549;-94
2021/09/11 06:17:08;;;;;;;19.48;11.90;;;;;;;9.77;77.01;97466.09;1846015;77;25630;-95
2021/09/11 06:19:36;;;;;;;19.12;12.18;;;;;;;9.86;77.05;97464.84;1845303;77;25744;-94
2021/09/11 06:22:04;;;;;;;18.77;11.20;;;;;;;9.96;77.17;97454.48;1845122;77;25716;-95
2021/09/11 06:24:31;;;;;;;17.62;11.68;;;;;;;10.08;77.23;97459.58;1845728;77;27395;-93
2021/09/11 06:26:58;;;;;;;14.33;11.03;;;;;;;10.20;77.29;97465.21;1813517;77;25247;-93
2021/09/11 06:29:25;;;;;;;18.10;10.93;;;;;;;10.33;77.34;97457.63;1844607;77;25727;-94
2021/09/11 06:31:52;;;;;;;16.70;10.90;;;;;;;10.46;77.37;97455.76;1844590;77;26461;-94
2021/09/11 06:34:18;;;;;;;17.48;12.07;;;;;;;10.59;77.42;97455.43;1836320;77;25265;-93
2021/09/11 06:36:45;;;;;;;15.95;11.63;;;;;;;10.73;77.47;97459.25;1816254;77;28246;-94
2021/09/11 06:39:11;;;;;;;19.42;11.65;;;;;;;10.88;77.59;97458.16;1844432;77;25705;-92
2021/09/11 06:41:38;;;;;;;14.65;9.88;;;;;;;11.05;77.54;97453.96;1844399;77;25739;-92
2021/09/11 06:44:05;;;;;;;20.90;11.85;;;;;;;11.19;77.63;97459.11;1844545;77;25787;-94
2021/09/11 06:46:32;;;;;;;18.52;12.13;;;;;;;11.37;77.37;97461.61;1844765;77;25698;-93
2021/09/11 06:48:59;;;;;;;17.52;10.20;;;;;;;11.51;77.24;97453.75;1811295;77;27405;-92
2021/09/11 06:51:25;;;;;;;14.00;10.43;;;;;;;11.63;77.26;97449.33;1844431;77;25747;-94
2021/09/11 06:53:52;;;;;;;13.60;9.85;;;;;;;11.76;77.32;97451.98;1844556;77;25471;-93
2021/09/11 06:56:19;;;;;;;13.05;9.85;;;;;;;11.92;77.33;97448.45;1844582;77;25726;-94
2021/09/11 06:58:45;;;;;;;11.43;10.08;;;;;;;12.05;77.26;97449.20;1844544;77;25339;-94
2021/09/11 07:01:12;;;;;;;16.93;10.38;;;;;;;12.20;77.31;97444.27;1844190;77;27393;-94
2021/09/11 07:03:38;;;;;;;15.08;10.85;;;;;;;12.37;77.42;97445.08;1844469;77;25730;-94
2021/09/11 07:06:06;;;;;;;19.17;10.90;;;;;;;12.52;77.37;97450.98;1821563;77;25723;-95
2021/09/11 07:08:34;;;;;;;17.27;10.93;;;;;;;12.69;77.40;97443.09;1844231;77;25718;-94
2021/09/11 07:11:01;;;;;;;16.27;10.70;;;;;;;12.83;77.28;97445.98;1844583;77;25358;-92
2021/09/11 07:13:27;;;;;;;13.98;10.15;;;;;;;13.00;77.24;97438.92;1820207;77;27434;-96
2021/09/11 07:15:54;;;;;;;13.83;9.20;;;;;;;13.19;77.23;97438.41;1801219;77;25693;-94
2021/09/11 07:18:23;;;;;;;11.70;8.55;;;;;;;13.38;77.19;97441.95;1788900;79;25740;-88
2021/09/11 07:20:49;;;;;;;16.48;7.22;;;;;;;13.57;76.74;97438.14;1829533;77;25916;-92
2021/09/11 07:23:16;;;;;;;15.23;7.83;;;;;;;13.80;76.16;97440.94;1811976;77;25742;-95
2021/09/11 07:25:43;;;;;;;12.23;7.90;;;;;;;14.04;75.63;97442.66;1841589;77;27453;-94
2021/09/11 07:28:09;;;;;;;11.63;7.70;;;;;;;14.28;75.13;97442.70;1807798;77;25751;-91
2021/09/11 07:30:36;;;;;;;11.05;7.60;;;;;;;14.54;75.41;97436.86;1812514;77;25695;-92
2021/09/11 07:33:03;;;;;;;12.60;7.08;;;;;;;14.83;75.09;97435.09;1836595;77;25877;-93
2021/09/11 07:35:30;;;;;;;16.12;7.25;;;;;;;15.18;74.89;97433.68;1826544;77;25735;-93
2021/09/11 07:37:57;;;;;;;9.08;6.17;;;;;;;15.59;73.78;97439.43;1823447;77;27448;-94
2021/09/11 07:40:23;;;;;;;9.65;7.12;;;;;;;16.02;73.43;97438.89;1840733;77;26023;-93
2021/09/11 07:42:50;;;;;;;9.65;6.33;;;;;;;16.49;72.77;97441.31;1841102;77;25712;-92
2021/09/11 07:45:17;;;;;;;10.60;6.80;;;;;;;16.96;72.18;97432.78;1834223;77;26369;-93
2021/09/11 07:47:44;;;;;;;7.80;6.70;;;;;;;17.41;71.74;97434.75;1815281;77;25254;-95
2021/09/11 07:50:11;;;;;;;13.95;7.17;;;;;;;17.80;71.00;97433.32;1841085;77;27447;-85
2021/09/11 07:52:38;;;;;;;23.42;7.15;;;;;;;18.19;70.54;97435.36;1840888;77;25747;-94
2021/09/11 07:55:07;;;;;;;11.73;6.45;;;;;;;18.53;69.51;97437.28;1840807;77;25707;-89
2021/09/11 07:57:33;;;;;;;12.37;6.97;;;;;;;18.81;68.71;97421.95;1818096;77;25831;-90
2021/09/11 08:00:00;;;;;;;12.13;6.45;;;;;;;19.14;68.37;97426.79;1806721;77;25759;-92
2021/09/11 08:02:27;;;;;;;14.28;6.22;;;;;;;19.50;67.96;97425.90;1831888;77;27335;-92
2021/09/11 08:04:53;;;;;;;7.95;6.53;;;;;;;19.73;66.47;97425.97;1824776;77;25718;-94
2021/09/11 08:07:21;;;;;;;10.03;6.30;;;;;;;20.06;66.59;97434.27;1841414;77;25719;-92
2021/09/11 08:09:47;;;;;;;8.10;5.95;;;;;;;20.43;65.72;97432.70;1826100;77;25815;-92
2021/09/11 08:12:14;;;;;;;9.58;5.87;;;;;;;21.24;63.85;97424.96;1841146;77;25701;-92
2021/09/11 08:14:40;;;;;;;8.60;5.95;;;;;;;21.24;63.85;97424.96;1834837;77;27406;-93
2021/09/11 08:17:07;;;;;;;10.10;5.67;;;;;;;21.60;63.23;97425.66;1826508;77;25848;-92
2021/09/11 08:19:33;;;;;;;8.03;5.12;;;;;;;21.99;62.67;97422.98;1824355;77;25836;-90
2021/09/11 08:22:00;;;;;;;10.15;5.58;;;;;;;22.34;61.81;97418.62;1842201;77;25872;-91
2021/09/11 08:24:27;;;;;;;9.45;5.65;;;;;;;22.68;60.85;97416.44;1840783;77;25843;-92
2021/09/11 08:26:53;;;;;;;6.55;4.90;;;;;;;23.04;60.25;97409.52;1805987;77;26818;-94
2021/09/11 08:29:20;;;;;;;9.85;4.75;;;;;;;23.33;59.23;97411.66;1828293;77;25763;-91
2021/09/11 08:31:46;;;;;;;8.38;4.90;;;;;;;23.59;58.19;97407.25;1840150;76;25867;-96
2021/09/11 08:34:13;;;;;;;10.55;6.05;;;;;;;23.85;57.69;97410.49;1840683;77;25743;-96
2021/09/11 08:36:40;;;;;;;11.45;5.17;;;;;;;24.16;57.31;97405.34;1807811;77;25902;-90
2021/09/11 08:39:07;;;;;;;9.65;5.80;;;;;;;24.38;55.99;97401.48;1841162;77;28395;-92
2021/09/11 08:41:35;;;;;;;11.35;6.30;;;;;;;24.60;55.64;97405.80;1840460;77;25861;-94
2021/09/11 08:44:01;;;;;;;10.80;5.25;;;;;;;24.81;55.08;97402.67;1810705;77;26295;-92
2021/09/11 08:46:29;;;;;;;8.75;5.92;;;;;;;24.97;54.09;97402.70;1840944;77;25674;-92
2021/09/11 08:48:57;;;;;;;7.17;5.25;;;;;;;25.09;53.65;97401.09;1829899;77;26414;-92
2021/09/11 08:51:24;;;;;;;13.08;6.58;;;;;;;25.20;52.74;97393.98;1825164;77;27590;-95
2021/09/11 08:53:51;;;;;;;9.23;5.45;;;;;;;25.27;52.53;97394.38;1833994;77;25871;-92
2021/09/11 08:56:17;;;;;;;8.63;5.85;;;;;;;25.31;51.78;97387.95;1824094;77;25465;-92
2021/09/11 08:58:47;;;;;;;11.45;5.87;;;;;;;25.32;51.52;97382.69;1826528;77;25783;-92
2021/09/11 09:01:14;;;;;;;7.47;5.03;;;;;;;25.38;51.29;97384.20;1842627;77;25727;-91
2021/09/11 09:03:44;;;;;;;6.78;5.35;;;;;;;25.43;50.65;97379.97;1841817;77;27181;-94
2021/09/11 09:06:21;;;;;;;7.40;5.30;;;;;;;25.52;50.55;97373.71;1842845;76;25850;-96
2021/09/11 09:08:52;;;;;;;8.75;4.72;;;;;;;25.65;49.85;97372.91;1841517;77;25680;-94
2021/09/11 09:11:27;;;;;;;9.78;5.08;;;;;;;25.65;49.29;97367.38;1840884;77;25735;-91
2021/09/11 09:14:07;;;;;;;8.60;5.20;;;;;;;25.78;48.91;97367.36;1840925;77;25832;-91
2021/09/11 09:16:37;;;;;;;9.85;5.08;;;;;;;25.88;48.70;97365.49;1840752;77;27397;-91
2021/09/11 09:19:14;;;;;;;11.68;5.50;;;;;;;26.01;48.54;97364.08;1840768;77;25733;-90
2021/09/11 09:21:43;;;;;;;6.58;4.67;;;;;;;26.12;47.89;97368.23;1840387;77;26006;-92
2021/09/11 09:24:12;;;;;;;8.85;5.05;;;;;;;26.24;47.44;97364.09;1840882;77;25904;-91
2021/09/11 09:26:59;;;;;;;8.90;4.03;;;;;;;26.39;47.08;97356.84;1830096;77;25213;-87
2021/09/11 09:29:26;;;;;;;9.68;4.58;;;;;;;26.52;46.38;97358.73;1834173;77;28368;-92
2021/09/11 09:31:55;;;;;;;8.48;4.80;;;;;;;26.69;45.99;97358.02;1840346;76;26033;-90
2021/09/11 09:34:41;;;;;;;5.47;4.15;;;;;;;26.78;45.42;97358.91;1836347;77;25230;-85
2021/09/11 09:37:18;;;;;;;7.55;4.20;;;;;;;26.89;44.54;97354.16;1794520;77;25791;-90
2021/09/11 09:39:49;;;;;;;7.03;4.78;;;;;;;26.98;44.03;97353.41;1809580;77;25782;-89
2021/09/11 09:42:19;;;;;;;7.70;3.90;;;;;;;27.10;43.87;97347.52;1818125;77;27362;-96
2021/09/11 09:44:48;;;;;;;6.42;4.42;;;;;;;27.22;43.23;97339.98;1840894;77;25731;-86
2021/09/11 09:47:19;;;;;;;7.83;4.42;;;;;;;27.35;42.92;97346.55;1832607;77;25704;-89
2021/09/11 09:50:14;;;;;;;5.67;3.92;;;;;;;27.44;42.59;97346.82;1812225;77;25886;-91
2021/09/11 09:52:41;;;;;;;8.23;4.33;;;;;;;27.54;41.96;97342.36;1819791;77;25825;-90
2021/09/11 09:55:09;;;;;;;6.15;4.30;;;;;;;27.62;41.53;97342.75;1826080;77;27318;-88
2021/09/11 09:57:37;;;;;;;7.00;4.10;;;;;;;27.69;41.38;97341.69;1818174;77;25744;-90
2021/09/11 10:00:05;;;;;;;7.00;3.90;;;;;;;27.73;40.56;97344.08;1840955;77;25811;-83
2021/09/11 10:02:32;;;;;;;7.72;3.92;;;;;;;27.74;40.19;97347.09;1828680;77;26600;-89
2021/09/11 10:04:59;;;;;;;8.45;3.80;;;;;;;27.71;39.92;97338.03;1823648;77;25727;-91
2021/09/11 10:07:26;;;;;;;6.55;4.60;;;;;;;27.73;39.70;97342.69;1840912;77;27428;-90
2021/09/11 10:09:55;;;;;;;8.78;4.12;;;;;;;27.78;39.86;97343.90;1840745;77;25859;-89
2021/09/11 10:12:36;;;;;;;8.63;4.30;;;;;;;27.76;39.53;97337.89;1840427;77;25819;-88
2021/09/11 10:15:24;;;;;;;5.87;4.00;;;;;;;27.77;39.32;97335.36;1817577;77;26482;-92
2021/09/11 10:17:50;;;;;;;6.30;3.40;;;;;;;27.79;39.00;97339.42;1795490;78;25736;-86
2021/09/11 10:20:17;;;;;;;5.22;3.22;;;;;;;27.77;38.54;97338.14;1773242;78;27481;-87
2021/09/11 10:23:06;;;;;;;6.95;3.22;;;;;;;27.73;38.13;97337.14;1800209;78;25969;-90
2021/09/11 10:25:43;;;;;;;12.15;5.85;;;;;;;27.74;37.77;97337.39;1830350;78;26443;-85
2021/09/11 10:28:22;;;;;;;7.78;3.90;;;;;;;27.72;37.63;97335.50;1829968;78;25809;-89
2021/09/11 10:31:12;;;;;;;3.83;3.22;;;;;;;27.73;36.79;97337.14;1830177;78;26771;-92
2021/09/11 10:33:51;;;;;;;7.12;3.35;;;;;;;27.70;36.53;97335.83;1829315;78;27373;-88
2021/09/11 10:36:25;;;;;;;5.72;3.17;;;;;;;27.69;36.39;97335.58;1809262;78;25962;-90
2021/09/11 10:38:52;;;;;;;9.10;3.45;;;;;;;27.70;36.70;97329.46;1807392;78;25739;-88
2021/09/11 10:41:19;;;;;;;6.25;3.95;;;;;;;27.62;36.71;97320.00;1817345;77;25798;-86
2021/09/11 10:44:07;;;;;;;4.67;3.30;;;;;;;27.59;36.73;97323.41;1820477;78;25707;-89
2021/09/11 10:46:53;;;;;;;5.83;3.40;;;;;;;27.59;36.62;97327.00;1797665;78;27372;-84
2021/09/11 10:49:32;;;;;;;4.10;3.50;;;;;;;27.64;36.00;97326.61;1811047;78;25731;-86
2021/09/11 10:52:07;;;;;;;4.37;3.20;;;;;;;27.67;35.74;97328.72;1830261;78;25707;-86
2021/09/11 10:54:42;;;;;;;9.43;3.70;;;;;;;27.68;35.64;97329.78;1815244;78;26414;-87
2021/09/11 10:57:19;;;;;;;5.67;3.62;;;;;;;27.62;35.63;97321.95;1824719;78;26348;-84
2021/09/11 10:59:50;;;;;;;3.90;3.08;;;;;;;27.57;35.95;97323.73;1829697;78;28135;-88
2021/09/11 11:02:39;;;;;;;6.05;3.00;;;;;;;27.47;35.85;97316.27;1830214;77;25704;-86
2021/09/11 11:05:11;;;;;;;7.35;3.33;;;;;;;27.41;35.98;97315.58;1824723;77;25699;-86
2021/09/11 11:07:44;;;;;;;3.05;2.75;;;;;;;27.40;35.81;97310.39;1810057;78;25733;-88
2021/09/11 11:10:18;;;;;;;5.72;2.70;;;;;;;27.43;35.89;97317.47;1816980;78;25680;-87
2021/09/11 11:12:49;;;;;;;6.58;3.30;;;;;;;27.22;35.65;97316.44;1830253;78;27352;-85
2021/09/11 11:15:27;;;;;;;3.70;2.95;;;;;;;27.15;35.21;97313.33;1829809;77;25731;-86
2021/09/11 11:17:54;;;;;;;6.42;2.80;;;;;;;27.20;35.58;97314.55;1798235;78;26245;-85
2021/09/11 11:20:27;;;;;;;5.00;3.10;;;;;;;27.23;34.64;97306.98;1826154;77;25759;-86
2021/09/11 11:23:00;;;;;;;7.42;3.62;;;;;;;27.29;34.80;97309.84;1819192;77;25726;-86
2021/09/11 11:25:39;;;;;;;5.75;2.90;;;;;;;27.32;34.61;97304.23;1845007;77;27357;-86
2021/09/11 11:28:09;;;;;;;4.40;2.87;;;;;;;27.33;34.17;97305.30;1821496;77;26018;-86
2021/09/11 11:30:40;;;;;;;5.28;2.70;;;;;;;27.37;34.42;97302.14;1844845;77;26412;-86
2021/09/11 11:33:07;;;;;;;6.47;2.70;;;;;;;27.39;34.35;97301.25;1837438;77;25759;-85
2021/09/11 11:35:34;;;;;;;5.22;2.62;;;;;;;27.41;34.18;97298.95;1819722;77;25672;-85
2021/09/11 11:38:01;;;;;;;4.00;2.50;;;;;;;27.36;33.85;97301.89;1819519;77;27455;-86